sensor_id;sensor_type;location;lat;lon;timestamp;pressure;altitude;pressure_sealevel;temperature;humidity
8047;BME280;67150;42.516;23.358;2023-07-20T00:00:55;88455.78;;;24.70;52.24
8047;BME280;67150;42.516;23.358;2023-07-20T00:03:22;88452.22;;;24.71;52.23
8047;BME280;67150;42.516;23.358;2023-07-20T00:05:50;88461.50;;;24.72;51.98
8047;BME280;67150;42.516;23.358;2023-07-20T00:08:18;88460.75;;;24.71;52.33
8047;BME280;67150;42.516;23.358;2023-07-20T00:10:45;88451.03;;;24.73;52.29
8047;BME280;67150;42.516;23.358;2023-07-20T00:13:14;88453.59;;;24.73;52.41
8047;BME280;67150;42.516;23.358;2023-07-20T00:15:44;88453.19;;;24.70;51.86
8047;BME280;67150;42.516;23.358;2023-07-20T00:18:11;88453.00;;;24.71;51.67
8047;BME280;67150;42.516;23.358;2023-07-20T00:20:39;88448.84;;;24.70;51.34
8047;BME280;67150;42.516;23.358;2023-07-20T00:23:06;88442.88;;;24.70;51.93
8047;BME280;67150;42.516;23.358;2023-07-20T00:25:34;88439.72;;;24.68;51.88
8047;BME280;67150;42.516;23.358;2023-07-20T00:28:02;88437.72;;;24.70;52.15
8047;BME280;67150;42.516;23.358;2023-07-20T00:30:30;88441.91;;;24.71;51.89
8047;BME280;67150;42.516;23.358;2023-07-20T00:32:57;88437.34;;;24.73;52.25
8047;BME280;67150;42.516;23.358;2023-07-20T00:35:25;88437.16;;;24.74;52.48
8047;BME280;67150;42.516;23.358;2023-07-20T00:37:52;88435.19;;;24.76;52.48
8047;BME280;67150;42.516;23.358;2023-07-20T00:40:19;88432.41;;;24.78;52.53
8047;BME280;67150;42.516;23.358;2023-07-20T00:42:47;88435.97;;;24.77;52.39
8047;BME280;67150;42.516;23.358;2023-07-20T00:45:14;88427.44;;;24.76;52.52
8047;BME280;67150;42.516;23.358;2023-07-20T00:47:43;88417.94;;;24.77;52.56
8047;BME280;67150;42.516;23.358;2023-07-20T00:50:10;88421.31;;;24.77;52.46
8047;BME280;67150;42.516;23.358;2023-07-20T00:52:38;88415.38;;;24.77;52.50
8047;BME280;67150;42.516;23.358;2023-07-20T00:55:07;88409.22;;;24.78;52.66
8047;BME280;67150;42.516;23.358;2023-07-20T00:57:36;88407.25;;;24.80;52.54
8047;BME280;67150;42.516;23.358;2023-07-20T01:00:05;88397.94;;;24.79;52.58
8047;BME280;67150;42.516;23.358;2023-07-20T01:02:34;88395.34;;;24.79;52.46
8047;BME280;67150;42.516;23.358;2023-07-20T01:05:04;88401.47;;;24.78;52.59
8047;BME280;67150;42.516;23.358;2023-07-20T01:07:36;88394.53;;;24.78;52.32
8047;BME280;67150;42.516;23.358;2023-07-20T01:10:12;88377.25;;;24.59;52.15
8047;BME280;67150;42.516;23.358;2023-07-20T01:12:47;88390.41;;;24.77;52.27
8047;BME280;67150;42.516;23.358;2023-07-20T01:15:17;88396.31;;;24.71;51.58
8047;BME280;67150;42.516;23.358;2023-07-20T01:17:44;88398.28;;;24.69;51.70
8047;BME280;67150;42.516;23.358;2023-07-20T01:20:16;88392.53;;;24.67;51.39
8047;BME280;67150;42.516;23.358;2023-07-20T01:23:14;88387.97;;;24.69;51.81
8047;BME280;67150;42.516;23.358;2023-07-20T01:26:02;88396.50;;;24.70;52.09
8047;BME280;67150;42.516;23.358;2023-07-20T01:28:52;88387.00;;;24.70;52.30
8047;BME280;67150;42.516;23.358;2023-07-20T01:31:27;88384.22;;;24.65;52.59
8047;BME280;67150;42.516;23.358;2023-07-20T01:33:58;88391.19;;;24.71;52.56
8047;BME280;67150;42.516;23.358;2023-07-20T01:36:37;88382.06;;;24.69;52.43
8047;BME280;67150;42.516;23.358;2023-07-20T01:39:05;88384.63;;;24.69;52.59
8047;BME280;67150;42.516;23.358;2023-07-20T01:41:37;88386.19;;;24.70;52.35
8047;BME280;67150;42.516;23.358;2023-07-20T01:44:05;88389.56;;;24.70;51.99
8047;BME280;67150;42.516;23.358;2023-07-20T01:46:34;88379.47;;;24.69;52.30
8047;BME280;67150;42.516;23.358;2023-07-20T01:49:01;88395.53;;;24.71;52.36
8047;BME280;67150;42.516;23.358;2023-07-20T01:51:28;88392.34;;;24.69;51.90
8047;BME280;67150;42.516;23.358;2023-07-20T01:53:55;88390.94;;;24.66;51.89
8047;BME280;67150;42.516;23.358;2023-07-20T01:56:23;88387.59;;;24.66;52.30
8047;BME280;67150;42.516;23.358;2023-07-20T01:58:50;88388.56;;;24.65;51.71
8047;BME280;67150;42.516;23.358;2023-07-20T02:01:17;88387.97;;;24.63;51.18
8047;BME280;67150;42.516;23.358;2023-07-20T02:03:46;88389.75;;;24.62;51.35
8047;BME280;67150;42.516;23.358;2023-07-20T02:06:13;88387.16;;;24.56;51.43
8047;BME280;67150;42.516;23.358;2023-07-20T02:08:41;88380.41;;;24.54;51.76
8047;BME280;67150;42.516;23.358;2023-07-20T02:11:08;88372.25;;;24.44;51.06
8047;BME280;67150;42.516;23.358;2023-07-20T02:13:36;88373.25;;;24.50;51.54
8047;BME280;67150;42.516;23.358;2023-07-20T02:16:03;88373.44;;;24.48;51.56
8047;BME280;67150;42.516;23.358;2023-07-20T02:18:31;88373.66;;;24.47;51.62
8047;BME280;67150;42.516;23.358;2023-07-20T02:21:00;88376.00;;;24.48;51.90
8047;BME280;67150;42.516;23.358;2023-07-20T02:23:27;88380.78;;;24.51;51.94
8047;BME280;67150;42.516;23.358;2023-07-20T02:25:55;88368.69;;;24.52;51.82
8047;BME280;67150;42.516;23.358;2023-07-20T02:28:22;88365.94;;;24.53;51.72
8047;BME280;67150;42.516;23.358;2023-07-20T02:30:49;88362.19;;;24.56;52.05
8047;BME280;67150;42.516;23.358;2023-07-20T02:33:16;88363.16;;;24.55;51.77
8047;BME280;67150;42.516;23.358;2023-07-20T02:35:44;88361.38;;;24.56;51.88
8047;BME280;67150;42.516;23.358;2023-07-20T02:38:12;88359.59;;;24.56;52.03
8047;BME280;67150;42.516;23.358;2023-07-20T02:40:40;88352.69;;;24.57;51.74
8047;BME280;67150;42.516;23.358;2023-07-20T02:43:07;88357.03;;;24.56;51.89
8047;BME280;67150;42.516;23.358;2023-07-20T02:45:35;88360.00;;;24.53;51.38
8047;BME280;67150;42.516;23.358;2023-07-20T02:48:13;88353.44;;;24.50;51.32
8047;BME280;67150;42.516;23.358;2023-07-20T02:50:40;88348.88;;;24.52;51.37
8047;BME280;67150;42.516;23.358;2023-07-20T02:53:07;88350.25;;;24.48;51.10
8047;BME280;67150;42.516;23.358;2023-07-20T02:55:36;88340.97;;;24.47;51.06
8047;BME280;67150;42.516;23.358;2023-07-20T02:58:04;88345.09;;;24.48;50.99
8047;BME280;67150;42.516;23.358;2023-07-20T03:00:31;88343.53;;;24.47;50.74
8047;BME280;67150;42.516;23.358;2023-07-20T03:02:58;88344.91;;;24.43;50.59
8047;BME280;67150;42.516;23.358;2023-07-20T03:05:25;88337.75;;;24.45;50.72
8047;BME280;67150;42.516;23.358;2023-07-20T03:07:53;88340.72;;;24.42;50.52
8047;BME280;67150;42.516;23.358;2023-07-20T03:10:21;88345.28;;;24.40;50.88
8047;BME280;67150;42.516;23.358;2023-07-20T03:12:54;88340.13;;;24.40;50.85
8047;BME280;67150;42.516;23.358;2023-07-20T03:15:21;88345.88;;;24.42;50.92
8047;BME280;67150;42.516;23.358;2023-07-20T03:17:49;88341.53;;;24.43;50.94
8047;BME280;67150;42.516;23.358;2023-07-20T03:20:17;88335.56;;;24.42;51.18
8047;BME280;67150;42.516;23.358;2023-07-20T03:22:47;88344.31;;;24.41;51.15
8047;BME280;67150;42.516;23.358;2023-07-20T03:25:14;88339.75;;;24.43;51.02
8047;BME280;67150;42.516;23.358;2023-07-20T03:27:41;88338.16;;;24.42;50.84
8047;BME280;67150;42.516;23.358;2023-07-20T03:30:11;88342.31;;;24.43;50.88
8047;BME280;67150;42.516;23.358;2023-07-20T03:32:41;88342.72;;;24.40;50.75
8047;BME280;67150;42.516;23.358;2023-07-20T03:35:09;88345.28;;;24.40;50.60
8047;BME280;67150;42.516;23.358;2023-07-20T03:37:36;88343.69;;;24.39;50.56
8047;BME280;67150;42.516;23.358;2023-07-20T03:40:04;88339.53;;;24.38;50.94
8047;BME280;67150;42.516;23.358;2023-07-20T03:42:33;88340.13;;;24.40;50.42
8047;BME280;67150;42.516;23.358;2023-07-20T03:45:04;88336.97;;;24.38;50.56
8047;BME280;67150;42.516;23.358;2023-07-20T03:47:33;88342.50;;;24.35;50.41
8047;BME280;67150;42.516;23.358;2023-07-20T03:50:00;88337.13;;;24.30;50.77
8047;BME280;67150;42.516;23.358;2023-07-20T03:52:32;88344.06;;;24.30;50.71
8047;BME280;67150;42.516;23.358;2023-07-20T03:54:59;88344.88;;;24.30;50.84
8047;BME280;67150;42.516;23.358;2023-07-20T03:57:26;88328.78;;;24.28;50.87
8047;BME280;67150;42.516;23.358;2023-07-20T03:59:54;88338.28;;;24.28;50.91
8047;BME280;67150;42.516;23.358;2023-07-20T04:02:21;88340.88;;;24.28;50.66
8047;BME280;67150;42.516;23.358;2023-07-20T04:04:51;88333.31;;;24.20;50.76
8047;BME280;67150;42.516;23.358;2023-07-20T04:07:20;88345.63;;;24.24;50.93
8047;BME280;67150;42.516;23.358;2023-07-20T04:09:47;88346.00;;;24.21;51.50
8047;BME280;67150;42.516;23.358;2023-07-20T04:12:15;88355.94;;;24.24;51.49
8047;BME280;67150;42.516;23.358;2023-07-20T04:14:42;88353.34;;;24.24;51.89
8047;BME280;67150;42.516;23.358;2023-07-20T04:17:09;88346.41;;;24.25;51.88
8047;BME280;67150;42.516;23.358;2023-07-20T04:19:38;88356.09;;;24.23;51.87
8047;BME280;67150;42.516;23.358;2023-07-20T04:22:07;88355.13;;;24.24;52.17
8047;BME280;67150;42.516;23.358;2023-07-20T04:24:35;88340.06;;;24.21;52.21
8047;BME280;67150;42.516;23.358;2023-07-20T04:27:02;88340.88;;;24.21;52.21
8047;BME280;67150;42.516;23.358;2023-07-20T04:29:31;88342.44;;;24.22;52.33
8047;BME280;67150;42.516;23.358;2023-07-20T04:31:58;88332.94;;;24.23;52.36
8047;BME280;67150;42.516;23.358;2023-07-20T04:34:26;88337.28;;;24.22;52.79
8047;BME280;67150;42.516;23.358;2023-07-20T04:36:53;88332.13;;;24.22;52.70
8047;BME280;67150;42.516;23.358;2023-07-20T04:39:22;88327.78;;;24.23;52.67
8047;BME280;67150;42.516;23.358;2023-07-20T04:41:49;88333.72;;;24.23;53.05
8047;BME280;67150;42.516;23.358;2023-07-20T04:44:16;88327.59;;;24.24;53.04
8047;BME280;67150;42.516;23.358;2023-07-20T04:46:44;88319.88;;;24.24;53.24
8047;BME280;67150;42.516;23.358;2023-07-20T04:49:15;88327.59;;;24.24;53.30
8047;BME280;67150;42.516;23.358;2023-07-20T04:51:42;88324.03;;;24.25;53.07
8047;BME280;67150;42.516;23.358;2023-07-20T04:54:09;88328.38;;;24.25;53.20
8047;BME280;67150;42.516;23.358;2023-07-20T04:56:38;88327.00;;;24.29;53.17
8047;BME280;67150;42.516;23.358;2023-07-20T04:59:05;88331.38;;;24.28;53.15
8047;BME280;67150;42.516;23.358;2023-07-20T05:01:32;88326.63;;;24.32;53.18
8047;BME280;67150;42.516;23.358;2023-07-20T05:04:00;88337.34;;;24.35;53.44
8047;BME280;67150;42.516;23.358;2023-07-20T05:06:27;88332.59;;;24.32;53.43
8047;BME280;67150;42.516;23.358;2023-07-20T05:08:54;88335.16;;;24.32;53.22
8047;BME280;67150;42.516;23.358;2023-07-20T05:11:22;88339.09;;;24.28;53.31
8047;BME280;67150;42.516;23.358;2023-07-20T05:13:50;88338.13;;;24.29;53.88
8047;BME280;67150;42.516;23.358;2023-07-20T05:16:18;88337.13;;;24.30;53.96
8047;BME280;67150;42.516;23.358;2023-07-20T05:18:45;88338.13;;;24.29;54.08
8047;BME280;67150;42.516;23.358;2023-07-20T05:21:16;88341.28;;;24.31;54.24
8047;BME280;67150;42.516;23.358;2023-07-20T05:23:43;88342.28;;;24.30;54.06
8047;BME280;67150;42.516;23.358;2023-07-20T05:26:10;88330.19;;;24.31;54.04
8047;BME280;67150;42.516;23.358;2023-07-20T05:28:38;88325.41;;;24.28;53.69
8047;BME280;67150;42.516;23.358;2023-07-20T05:31:07;88326.44;;;24.33;54.20
8047;BME280;67150;42.516;23.358;2023-07-20T05:33:34;88326.44;;;24.40;54.23
8047;BME280;67150;42.516;23.358;2023-07-20T05:36:02;88325.66;;;24.39;54.04
8047;BME280;67150;42.516;23.358;2023-07-20T05:38:29;88337.75;;;24.45;53.99
8047;BME280;67150;42.516;23.358;2023-07-20T05:40:59;88334.22;;;24.46;54.05
8047;BME280;67150;42.516;23.358;2023-07-20T05:43:28;88333.41;;;24.46;54.30
8047;BME280;67150;42.516;23.358;2023-07-20T05:45:55;88345.72;;;24.50;53.92
8047;BME280;67150;42.516;23.358;2023-07-20T05:48:24;88350.88;;;24.50;54.00
8047;BME280;67150;42.516;23.358;2023-07-20T05:50:51;88349.09;;;24.51;54.02
8047;BME280;67150;42.516;23.358;2023-07-20T05:53:19;88349.31;;;24.56;54.18
8047;BME280;67150;42.516;23.358;2023-07-20T05:55:52;88348.13;;;24.59;54.17
8047;BME280;67150;42.516;23.358;2023-07-20T05:58:19;88351.28;;;24.61;54.41
8047;BME280;67150;42.516;23.358;2023-07-20T06:00:48;88355.25;;;24.63;54.32
8047;BME280;67150;42.516;23.358;2023-07-20T06:03:15;88353.09;;;24.67;54.57
8047;BME280;67150;42.516;23.358;2023-07-20T06:05:45;88353.09;;;24.67;54.73
8047;BME280;67150;42.516;23.358;2023-07-20T06:08:12;88342.19;;;24.65;54.48
8047;BME280;67150;42.516;23.358;2023-07-20T06:10:40;88340.81;;;24.69;54.86
8047;BME280;67150;42.516;23.358;2023-07-20T06:13:10;88351.72;;;24.71;54.97
8047;BME280;67150;42.516;23.358;2023-07-20T06:15:37;88355.28;;;24.70;55.19
8047;BME280;67150;42.516;23.358;2023-07-20T06:18:04;88338.63;;;24.72;54.73
8047;BME280;67150;42.516;23.358;2023-07-20T06:20:32;88348.94;;;24.72;55.10
8047;BME280;67150;42.516;23.358;2023-07-20T06:23:00;88349.34;;;24.76;54.84
8047;BME280;67150;42.516;23.358;2023-07-20T06:25:31;88343.22;;;24.77;54.95
8047;BME280;67150;42.516;23.358;2023-07-20T06:27:58;88341.63;;;24.76;54.95
8047;BME280;67150;42.516;23.358;2023-07-20T06:30:25;88336.47;;;24.76;54.66
8047;BME280;67150;42.516;23.358;2023-07-20T06:32:53;88337.06;;;24.78;54.72
8047;BME280;67150;42.516;23.358;2023-07-20T06:35:20;88333.13;;;24.82;54.57
8047;BME280;67150;42.516;23.358;2023-07-20T06:37:47;88332.53;;;24.80;55.10
8047;BME280;67150;42.516;23.358;2023-07-20T06:40:16;88331.38;;;24.82;55.00
8047;BME280;67150;42.516;23.358;2023-07-20T06:42:44;88330.78;;;24.80;55.46
8047;BME280;67150;42.516;23.358;2023-07-20T06:45:11;88336.13;;;24.85;55.69
8047;BME280;67150;42.516;23.358;2023-07-20T06:47:39;88336.31;;;24.90;55.56
8047;BME280;67150;42.516;23.358;2023-07-20T06:50:09;88341.88;;;24.94;55.92
8047;BME280;67150;42.516;23.358;2023-07-20T06:52:37;88334.56;;;24.97;55.62
8047;BME280;67150;42.516;23.358;2023-07-20T06:55:06;88340.53;;;24.98;55.71
8047;BME280;67150;42.516;23.358;2023-07-20T06:57:35;88335.34;;;24.98;55.80
8047;BME280;67150;42.516;23.358;2023-07-20T07:00:03;88340.09;;;24.94;55.93
8047;BME280;67150;42.516;23.358;2023-07-20T07:02:32;88331.78;;;24.99;56.02
8047;BME280;67150;42.516;23.358;2023-07-20T07:05:02;88340.31;;;24.99;55.99
8047;BME280;67150;42.516;23.358;2023-07-20T07:07:29;88346.44;;;24.98;56.04
8047;BME280;67150;42.516;23.358;2023-07-20T07:09:56;88353.19;;;24.99;56.05
8047;BME280;67150;42.516;23.358;2023-07-20T07:12:24;88357.75;;;24.97;56.10
8047;BME280;67150;42.516;23.358;2023-07-20T07:14:53;88363.72;;;24.98;56.16
8047;BME280;67150;42.516;23.358;2023-07-20T07:17:20;88365.66;;;24.96;56.24
8047;BME280;67150;42.516;23.358;2023-07-20T07:19:47;88377.56;;;24.90;56.50
8047;BME280;67150;42.516;23.358;2023-07-20T07:22:15;88385.28;;;24.90;56.49
8047;BME280;67150;42.516;23.358;2023-07-20T07:24:42;88390.06;;;24.93;56.95
8047;BME280;67150;42.516;23.358;2023-07-20T07:27:10;88395.00;;;24.88;57.16
8047;BME280;67150;42.516;23.358;2023-07-20T07:29:37;88397.78;;;24.93;56.95
8047;BME280;67150;42.516;23.358;2023-07-20T07:32:07;88410.88;;;24.92;57.17
8047;BME280;67150;42.516;23.358;2023-07-20T07:34:35;88414.06;;;24.94;56.89
8047;BME280;67150;42.516;23.358;2023-07-20T07:37:03;88408.13;;;25.00;57.22
8047;BME280;67150;42.516;23.358;2023-07-20T07:39:31;88392.84;;;24.92;57.61
8047;BME280;67150;42.516;23.358;2023-07-20T07:41:58;88405.72;;;24.98;57.38
8047;BME280;67150;42.516;23.358;2023-07-20T07:44:28;88408.13;;;25.00;57.30
8047;BME280;67150;42.516;23.358;2023-07-20T07:46:56;88411.69;;;24.99;57.83
8047;BME280;67150;42.516;23.358;2023-07-20T07:49:24;88410.50;;;25.01;57.81
8047;BME280;67150;42.516;23.358;2023-07-20T07:51:52;88408.72;;;25.02;57.77
8047;BME280;67150;42.516;23.358;2023-07-20T07:54:19;88412.91;;;25.03;58.03
8047;BME280;67150;42.516;23.358;2023-07-20T07:56:46;88413.69;;;25.10;57.75
8047;BME280;67150;42.516;23.358;2023-07-20T07:59:14;88382.75;;;25.03;57.68
8047;BME280;67150;42.516;23.358;2023-07-20T08:01:41;88385.94;;;25.12;57.97
8047;BME280;67150;42.516;23.358;2023-07-20T08:04:08;88382.97;;;25.08;57.88
8047;BME280;67150;42.516;23.358;2023-07-20T08:06:37;88387.50;;;25.13;57.52
8047;BME280;67150;42.516;23.358;2023-07-20T08:09:04;88380.41;;;25.15;57.57
8047;BME280;67150;42.516;23.358;2023-07-20T08:11:33;88375.00;;;25.10;57.84
8047;BME280;67150;42.516;23.358;2023-07-20T08:14:00;88362.34;;;25.15;57.50
8047;BME280;67150;42.516;23.358;2023-07-20T08:16:28;88361.75;;;25.20;57.51
8047;BME280;67150;42.516;23.358;2023-07-20T08:18:55;88379.00;;;25.19;57.84
8047;BME280;67150;42.516;23.358;2023-07-20T08:21:22;88386.34;;;25.22;57.65
8047;BME280;67150;42.516;23.358;2023-07-20T08:23:51;88388.72;;;25.24;57.46
8047;BME280;67150;42.516;23.358;2023-07-20T08:26:19;88390.72;;;25.28;57.25
8047;BME280;67150;42.516;23.358;2023-07-20T08:28:48;88383.38;;;25.25;57.27
8047;BME280;67150;42.516;23.358;2023-07-20T08:31:15;88376.44;;;25.26;57.29
8047;BME280;67150;42.516;23.358;2023-07-20T08:33:42;88384.38;;;25.24;57.40
8047;BME280;67150;42.516;23.358;2023-07-20T08:36:10;88380.22;;;25.30;57.23
8047;BME280;67150;42.516;23.358;2023-07-20T08:38:37;88385.16;;;25.25;57.37
8047;BME280;67150;42.516;23.358;2023-07-20T08:41:07;88366.69;;;25.28;57.49
8047;BME280;67150;42.516;23.358;2023-07-20T08:43:39;88370.50;;;25.19;57.60
8047;BME280;67150;42.516;23.358;2023-07-20T08:46:10;88384.38;;;25.24;57.85
8047;BME280;67150;42.516;23.358;2023-07-20T08:48:41;88388.91;;;25.22;57.69
8047;BME280;67150;42.516;23.358;2023-07-20T08:51:10;88389.72;;;25.23;57.93
8047;BME280;67150;42.516;23.358;2023-07-20T08:53:41;88386.72;;;25.19;58.02
8047;BME280;67150;42.516;23.358;2023-07-20T08:56:11;88387.13;;;25.16;58.40
8047;BME280;67150;42.516;23.358;2023-07-20T08:58:43;88398.25;;;25.23;58.23
8047;BME280;67150;42.516;23.358;2023-07-20T09:01:11;88402.03;;;25.21;58.45
8047;BME280;67150;42.516;23.358;2023-07-20T09:03:38;88398.25;;;25.23;58.51
8047;BME280;67150;42.516;23.358;2023-07-20T09:06:06;88397.66;;;25.21;58.51
8047;BME280;67150;42.516;23.358;2023-07-20T09:08:33;88387.94;;;25.23;58.62
8047;BME280;67150;42.516;23.358;2023-07-20T09:11:00;88398.25;;;25.23;58.69
8047;BME280;67150;42.516;23.358;2023-07-20T09:13:29;88388.13;;;25.15;58.57
8047;BME280;67150;42.516;23.358;2023-07-20T09:15:58;88398.22;;;25.17;58.42
8047;BME280;67150;42.516;23.358;2023-07-20T09:18:26;88394.47;;;25.19;58.50
8047;BME280;67150;42.516;23.358;2023-07-20T09:20:58;88401.22;;;25.20;58.65
8047;BME280;67150;42.516;23.358;2023-07-20T09:23:33;88397.03;;;25.19;58.16
8047;BME280;67150;42.516;23.358;2023-07-20T09:26:00;88402.00;;;25.14;58.48
8047;BME280;67150;42.516;23.358;2023-07-20T09:28:29;88408.38;;;25.18;58.55
8047;BME280;67150;42.516;23.358;2023-07-20T09:31:00;88402.19;;;25.19;58.54
8047;BME280;67150;42.516;23.358;2023-07-20T09:33:42;88375.81;;;25.17;58.27
8047;BME280;67150;42.516;23.358;2023-07-20T09:36:10;88370.88;;;25.16;58.08
8047;BME280;67150;42.516;23.358;2023-07-20T09:38:38;88397.47;;;25.29;58.34
8047;BME280;67150;42.516;23.358;2023-07-20T09:41:06;88398.25;;;25.30;57.92
8047;BME280;67150;42.516;23.358;2023-07-20T09:43:38;88405.78;;;25.31;58.01
8047;BME280;67150;42.516;23.358;2023-07-20T09:46:05;88405.78;;;25.31;58.01
8047;BME280;67150;42.516;23.358;2023-07-20T09:48:33;88400.44;;;25.26;57.84
8047;BME280;67150;42.516;23.358;2023-07-20T09:51:01;88388.94;;;25.29;57.92
8047;BME280;67150;42.516;23.358;2023-07-20T09:53:30;88391.50;;;25.29;57.56
8047;BME280;67150;42.516;23.358;2023-07-20T09:55:59;88392.31;;;25.29;57.62
8047;BME280;67150;42.516;23.358;2023-07-20T09:58:29;88389.72;;;25.23;57.89
8047;BME280;67150;42.516;23.358;2023-07-20T10:01:03;88393.91;;;25.30;57.45
8047;BME280;67150;42.516;23.358;2023-07-20T10:03:37;88391.91;;;25.32;57.69
8047;BME280;67150;42.516;23.358;2023-07-20T10:06:07;88376.84;;;25.29;57.72
8047;BME280;67150;42.516;23.358;2023-07-20T10:08:53;88385.56;;;25.35;57.32
8047;BME280;67150;42.516;23.358;2023-07-20T10:11:24;88384.78;;;25.34;57.14
8047;BME280;67150;42.516;23.358;2023-07-20T10:13:55;88382.38;;;25.39;56.94
8047;BME280;67150;42.516;23.358;2023-07-20T10:16:28;88374.44;;;25.34;57.19
8047;BME280;67150;42.516;23.358;2023-07-20T10:19:03;88376.44;;;25.32;57.19
8047;BME280;67150;42.516;23.358;2023-07-20T10:21:32;88377.44;;;25.38;57.07
8047;BME280;67150;42.516;23.358;2023-07-20T10:24:01;88368.50;;;25.27;57.24
8047;BME280;67150;42.516;23.358;2023-07-20T10:26:29;88384.78;;;25.34;57.46
8047;BME280;67150;42.516;23.358;2023-07-20T10:28:58;88388.94;;;25.35;57.30
8047;BME280;67150;42.516;23.358;2023-07-20T10:31:28;88385.56;;;25.35;57.36
8047;BME280;67150;42.516;23.358;2023-07-20T10:33:57;88393.09;;;25.36;57.23
8047;BME280;67150;42.516;23.358;2023-07-20T10:36:25;88392.09;;;25.37;57.20
8047;BME280;67150;42.516;23.358;2023-07-20T10:38:54;88396.09;;;25.33;57.39
8047;BME280;67150;42.516;23.358;2023-07-20T10:41:33;88399.25;;;25.35;57.39
8047;BME280;67150;42.516;23.358;2023-07-20T10:44:01;88394.50;;;25.32;57.42
8047;BME280;67150;42.516;23.358;2023-07-20T10:46:42;88380.19;;;25.23;57.59
8047;BME280;67150;42.516;23.358;2023-07-20T10:49:11;88387.56;;;25.33;57.52
8047;BME280;67150;42.516;23.358;2023-07-20T10:51:40;88368.50;;;25.34;57.33
8047;BME280;67150;42.516;23.358;2023-07-20T10:54:09;88375.25;;;25.28;57.50
8047;BME280;67150;42.516;23.358;2023-07-20T10:56:37;88374.84;;;25.25;57.27
8047;BME280;67150;42.516;23.358;2023-07-20T10:59:18;88365.94;;;25.27;57.11
8047;BME280;67150;42.516;23.358;2023-07-20T11:01:50;88362.34;;;25.28;56.93
8047;BME280;67150;42.516;23.358;2023-07-20T11:04:37;88363.94;;;25.36;56.70
8047;BME280;67150;42.516;23.358;2023-07-20T11:07:05;88369.50;;;25.33;56.82
8047;BME280;67150;42.516;23.358;2023-07-20T11:09:34;88363.34;;;25.34;56.76
8047;BME280;67150;42.516;23.358;2023-07-20T11:12:09;88349.25;;;25.36;56.51
8047;BME280;67150;42.516;23.358;2023-07-20T11:14:40;88342.13;;;25.32;56.92
8047;BME280;67150;42.516;23.358;2023-07-20T11:17:14;88336.78;;;25.33;56.86
8047;BME280;67150;42.516;23.358;2023-07-20T11:19:42;88328.41;;;25.31;56.84
8047;BME280;67150;42.516;23.358;2023-07-20T11:22:09;88324.66;;;25.34;56.96
8047;BME280;67150;42.516;23.358;2023-07-20T11:24:39;88320.88;;;25.36;56.80
8047;BME280;67150;42.516;23.358;2023-07-20T11:27:06;88317.72;;;25.34;57.05
8047;BME280;67150;42.516;23.358;2023-07-20T11:29:35;88323.66;;;25.41;56.75
8047;BME280;67150;42.516;23.358;2023-07-20T11:32:03;88327.22;;;25.34;57.18
8047;BME280;67150;42.516;23.358;2023-07-20T11:34:33;88325.66;;;25.33;57.38
8047;BME280;67150;42.516;23.358;2023-07-20T11:37:01;88319.91;;;25.24;57.82
8047;BME280;67150;42.516;23.358;2023-07-20T11:39:28;88338.72;;;25.31;57.55
8047;BME280;67150;42.516;23.358;2023-07-20T11:41:56;88310.38;;;25.18;57.75
8047;BME280;67150;42.516;23.358;2023-07-20T11:44:26;88325.63;;;25.39;57.43
8047;BME280;67150;42.516;23.358;2023-07-20T11:47:03;88322.06;;;25.40;56.92
8047;BME280;67150;42.516;23.358;2023-07-20T11:49:34;88328.44;;;25.38;57.33
8047;BME280;67150;42.516;23.358;2023-07-20T11:52:03;88311.97;;;25.32;57.25
8047;BME280;67150;42.516;23.358;2023-07-20T11:54:31;88316.31;;;25.32;56.59
8047;BME280;67150;42.516;23.358;2023-07-20T11:57:01;88292.13;;;25.13;56.66
8047;BME280;67150;42.516;23.358;2023-07-20T11:59:28;88312.56;;;25.34;56.29
8047;BME280;67150;42.516;23.358;2023-07-20T12:01:57;88300.84;;;25.32;55.69
8047;BME280;67150;42.516;23.358;2023-07-20T12:04:24;88310.56;;;25.36;55.80
8047;BME280;67150;42.516;23.358;2023-07-20T12:06:54;88308.78;;;25.37;55.54
8047;BME280;67150;42.516;23.358;2023-07-20T12:09:22;88302.41;;;25.39;54.39
8047;BME280;67150;42.516;23.358;2023-07-20T12:11:50;88264.97;;;25.30;54.84
8047;BME280;67150;42.516;23.358;2023-07-20T12:14:17;88301.84;;;25.37;55.13
8047;BME280;67150;42.516;23.358;2023-07-20T12:16:52;88297.88;;;25.41;54.66
8047;BME280;67150;42.516;23.358;2023-07-20T12:19:20;88303.03;;;25.41;54.93
8047;BME280;67150;42.516;23.358;2023-07-20T12:21:47;88302.63;;;25.38;54.37
8047;BME280;67150;42.516;23.358;2023-07-20T12:24:17;88299.03;;;25.45;54.29
8047;BME280;67150;42.516;23.358;2023-07-20T12:26:45;88295.88;;;25.43;53.78
8047;BME280;67150;42.516;23.358;2023-07-20T12:29:12;88293.88;;;25.45;54.09
8047;BME280;67150;42.516;23.358;2023-07-20T12:31:39;88289.75;;;25.44;54.04
8047;BME280;67150;42.516;23.358;2023-07-20T12:34:06;88289.75;;;25.44;54.15
8047;BME280;67150;42.516;23.358;2023-07-20T12:36:35;88294.50;;;25.47;54.07
8047;BME280;67150;42.516;23.358;2023-07-20T12:39:02;88280.00;;;25.46;54.18
8047;BME280;67150;42.516;23.358;2023-07-20T12:41:40;88286.16;;;25.45;53.62
8047;BME280;67150;42.516;23.358;2023-07-20T12:44:07;88282.19;;;25.43;54.16
8047;BME280;67150;42.516;23.358;2023-07-20T12:46:34;88282.00;;;25.44;54.84
8047;BME280;67150;42.516;23.358;2023-07-20T12:49:03;88277.63;;;25.51;54.52
8047;BME280;67150;42.516;23.358;2023-07-20T12:51:30;88285.16;;;25.46;54.49
8047;BME280;67150;42.516;23.358;2023-07-20T12:53:58;88292.75;;;25.48;54.27
8047;BME280;67150;42.516;23.358;2023-07-20T12:56:25;88282.00;;;25.44;54.38
8047;BME280;67150;42.516;23.358;2023-07-20T12:58:54;88276.84;;;25.44;54.52
8047;BME280;67150;42.516;23.358;2023-07-20T13:01:21;88270.47;;;25.47;53.93
8047;BME280;67150;42.516;23.358;2023-07-20T13:03:51;88269.31;;;25.56;53.57
8047;BME280;67150;42.516;23.358;2023-07-20T13:06:20;88276.06;;;25.50;53.90
8047;BME280;67150;42.516;23.358;2023-07-20T13:08:53;88268.91;;;25.52;53.91